Terminal Aerodrome Forecast
Issued by NWS

Home | Current Version | Previous Version | Text Only | Print | Product List | Glossary On
Versions: 1 2 3 4 5 6 7 8 9 10 11 12 13
205
FTUS44 KSJT 232320
TAFJCT
TAF
KJCT 232320Z 2400/2424 15008KT P6SM FEW070
     FM240300 15004KT P6SM SKC
      TEMPO 2412/2415 SCT025
     FM241500 18006KT P6SM SKC
     FM241800 14007KT P6SM FEW060=

USA.gov is the U.S. government's official web portal to all federal, state and local government web resources and services.